Time;durP1;ratioP1;P1;durP2;ratioP2;P2;SDS_P1;SDS_P2;PMS_P1;PMS_P2;Temp;Humidity;BMP_temperature;BMP_pressure;BME280_temperature;BME280_humidity;BME280_pressure;Samples;Min_cycle;Max_cycle;Signal;HPM_P1;HPM_P2
2024/02/07 00:01:12;;;;;;;5.68;2.85;;;5.20;65.70;;;;;;5092054;28;20044;-74
2024/02/07 00:03:38;;;;;;;7.45;3.65;;;5.10;65.60;;;;;;5092766;28;20020;-73
2024/02/07 00:06:04;;;;;;;7.53;3.13;;;5.20;65.60;;;;;;5092715;28;20044;-73
2024/02/07 00:08:30;;;;;;;4.15;2.03;;;5.10;65.10;;;;;;5092750;28;20028;-73
2024/02/07 00:10:57;;;;;;;3.75;2.63;;;5.20;65.80;;;;;;5091947;28;20077;-73
2024/02/07 00:13:23;;;;;;;7.22;3.50;;;5.20;65.80;;;;;;5092779;28;20089;-73
2024/02/07 00:15:49;;;;;;;12.95;2.83;;;5.10;66.20;;;;;;5092624;28;20166;-73
2024/02/07 00:18:17;;;;;;;3.55;2.70;;;5.10;66.30;;;;;;5093495;28;20054;-74
2024/02/07 00:20:43;;;;;;;16.27;5.55;;;5.10;66.30;;;;;;5091503;28;20044;-73
2024/02/07 00:23:09;;;;;;;3.17;1.98;;;5.10;66.40;;;;;;5092240;28;20043;-73
2024/02/07 00:25:35;;;;;;;7.70;4.53;;;5.10;66.60;;;;;;5092075;28;20044;-73
2024/02/07 00:28:01;;;;;;;7.55;3.95;;;5.10;66.70;;;;;;5092374;28;20040;-73
2024/02/07 00:30:29;;;;;;;6.90;3.90;;;5.10;66.60;;;;;;5091429;28;20512;-74
2024/02/07 00:32:55;;;;;;;5.75;3.75;;;5.10;66.50;;;;;;5075734;28;20461;-73
2024/02/07 00:35:21;;;;;;;6.28;3.88;;;5.10;66.30;;;;;;5093584;28;20063;-73
2024/02/07 00:37:47;;;;;;;14.25;6.85;;;5.10;66.20;;;;;;5074402;28;20028;-73
2024/02/07 00:40:14;;;;;;;6.72;4.50;;;5.10;66.40;;;;;;5092924;28;20092;-73
2024/02/07 00:42:40;;;;;;;8.63;4.57;;;5.10;65.30;;;;;;5075610;28;20431;-74
2024/02/07 00:45:07;;;;;;;7.70;3.67;;;5.10;66.00;;;;;;5094111;28;20032;-74
2024/02/07 00:47:33;;;;;;;5.95;4.03;;;5.10;65.30;;;;;;5091803;28;20099;-73
2024/02/07 00:49:59;;;;;;;9.02;3.80;;;5.10;65.90;;;;;;5091917;28;20047;-73
2024/02/07 00:52:25;;;;;;;8.35;3.42;;;5.20;65.80;;;;;;5092832;28;20035;-73
2024/02/07 00:54:51;;;;;;;11.13;3.90;;;5.20;65.80;;;;;;5091951;28;20488;-74
2024/02/07 00:57:17;;;;;;;6.60;4.80;;;5.20;65.80;;;;;;5091999;28;20051;-73
2024/02/07 00:59:43;;;;;;;9.88;4.80;;;5.10;65.70;;;;;;5092082;28;20027;-73
2024/02/07 01:02:09;;;;;;;6.93;4.95;;;5.00;65.80;;;;;;5091773;28;20032;-74
2024/02/07 01:04:36;;;;;;;5.85;3.08;;;5.00;66.20;;;;;;5093503;28;20047;-74
2024/02/07 01:07:02;;;;;;;6.85;3.70;;;4.90;66.60;;;;;;5093450;28;20055;-73
2024/02/07 01:09:29;;;;;;;5.82;2.45;;;4.90;67.10;;;;;;5091950;28;20034;-74
2024/02/07 01:11:55;;;;;;;5.63;2.28;;;4.90;66.10;;;;;;5092852;28;20036;-73
2024/02/07 01:14:21;;;;;;;5.05;2.72;;;4.90;66.10;;;;;;5093392;28;20423;-72
2024/02/07 01:16:47;;;;;;;;;;;4.90;66.10;;;;;;5093547;28;20447;-74
2024/02/07 01:19:13;;;;;;;3.83;1.80;;;4.90;66.10;;;;;;5091817;28;20005;-74
2024/02/07 01:21:39;;;;;;;4.40;2.28;;;4.90;66.30;;;;;;5091032;28;20040;-74
2024/02/07 01:24:08;;;;;;;5.57;2.25;;;4.90;66.20;;;;;;5092959;28;20082;-74
2024/02/07 01:26:35;;;;;;;3.35;2.15;;;5.00;66.20;;;;;;5093321;28;20075;-74
2024/02/07 01:29:02;;;;;;;4.68;2.17;;;5.10;66.00;;;;;;5093023;28;20035;-73
2024/02/07 01:31:28;;;;;;;;;;;5.20;65.80;;;;;;5091094;28;20097;-74
2024/02/07 01:33:55;;;;;;;7.20;2.40;;;5.20;65.80;;;;;;5091023;28;20003;-74
2024/02/07 01:36:24;;;;;;;4.28;2.03;;;5.20;65.60;;;;;;5092319;28;20034;-73
2024/02/07 01:38:51;;;;;;;4.38;2.65;;;5.30;65.50;;;;;;5091036;28;20028;-73
2024/02/07 01:41:19;;;;;;;2.95;2.03;;;5.30;65.40;;;;;;5090573;28;20043;-73
2024/02/07 01:43:45;;;;;;;2.83;1.80;;;5.40;65.60;;;;;;5091582;28;20105;-73
2024/02/07 01:46:12;;;;;;;5.70;3.55;;;5.40;66.50;;;;;;5091622;28;20485;-74
2024/02/07 01:48:42;;;;;;;3.13;1.45;;;5.40;66.10;;;;;;5092487;28;20042;-73
2024/02/07 01:51:08;;;;;;;5.88;2.30;;;5.50;65.90;;;;;;5092562;28;20451;-74
2024/02/07 01:53:38;;;;;;;0.60;0.60;;;5.50;66.00;;;;;;5093118;28;20046;-73
2024/02/07 01:56:06;;;;;;;2.50;1.85;;;5.50;65.90;;;;;;5075263;28;20051;-74
2024/02/07 01:58:35;;;;;;;5.10;2.20;;;5.50;65.80;;;;;;5091641;28;20024;-73
2024/02/07 02:01:01;;;;;;;3.15;1.98;;;5.60;65.80;;;;;;5090336;28;20118;-74
2024/02/07 02:03:28;;;;;;;4.22;2.10;;;5.60;65.40;;;;;;5090657;28;20472;-74
2024/02/07 02:05:55;;;;;;;7.22;2.75;;;5.70;66.10;;;;;;5090783;28;20711;-73
2024/02/07 02:08:23;;;;;;;3.67;1.40;;;5.70;65.90;;;;;;5091972;28;20043;-74
2024/02/07 02:10:52;;;;;;;6.60;1.67;;;5.70;65.40;;;;;;5089808;28;20364;-73
2024/02/07 02:13:19;;;;;;;2.47;1.65;;;5.70;66.20;;;;;;5073233;28;20130;-74
2024/02/07 02:15:46;;;;;;;2.80;2.17;;;5.70;66.40;;;;;;5073414;28;20048;-74
2024/02/07 02:18:12;;;;;;;3.92;2.17;;;5.60;66.50;;;;;;5090354;28;20123;-73
2024/02/07 02:20:38;;;;;;;3.75;2.92;;;5.60;66.60;;;;;;5091545;28;20050;-74
2024/02/07 02:23:43;;;;;;;9.52;4.55;;;5.60;66.90;;;;;;5091062;28;20060;-73
2024/02/07 02:27:07;;;;;;;6.47;3.78;;;5.60;66.70;;;;;;5090701;28;20047;-74
2024/02/07 02:29:40;;;;;;;5.28;2.88;;;5.60;66.80;;;;;;5090687;28;20068;-74
2024/02/07 02:32:07;;;;;;;3.55;2.90;;;5.70;66.70;;;;;;5090193;28;20040;-74
2024/02/07 02:34:36;;;;;;;4.25;2.03;;;5.70;66.80;;;;;;5090913;28;20032;-74
2024/02/07 02:37:03;;;;;;;2.55;1.40;;;5.70;66.70;;;;;;5090885;28;20027;-74
2024/02/07 02:39:29;;;;;;;2.63;1.40;;;5.80;66.60;;;;;;5090486;28;20035;-74
2024/02/07 02:41:56;;;;;;;3.67;2.05;;;5.80;67.40;;;;;;5090061;28;20496;-74
2024/02/07 02:44:23;;;;;;;3.25;1.05;;;5.90;66.70;;;;;;5090533;28;20032;-74
2024/02/07 02:46:50;;;;;;;3.22;1.60;;;5.90;66.80;;;;;;5090342;28;20040;-71
2024/02/07 02:49:16;;;;;;;7.97;2.25;;;5.90;66.20;;;;;;5089893;28;20034;-71
2024/02/07 02:51:42;;;;;;;3.90;1.38;;;6.00;66.90;;;;;;5089215;28;20053;-71
2024/02/07 02:54:08;;;;;;;2.70;1.20;;;6.00;67.00;;;;;;5089803;28;20035;-72
2024/02/07 02:56:36;;;;;;;3.00;1.85;;;6.10;67.10;;;;;;5089919;28;20036;-72
2024/02/07 02:59:05;;;;;;;2.08;1.13;;;6.00;67.00;;;;;;5090910;28;20504;-72
2024/02/07 03:01:34;;;;;;;3.80;1.92;;;6.10;66.90;;;;;;5094486;28;20048;-72
2024/02/07 03:04:03;;;;;;;5.68;2.53;;;6.10;66.70;;;;;;5094220;28;20392;-72
2024/02/07 03:06:29;;;;;;;7.13;2.33;;;6.20;67.00;;;;;;5096097;28;20036;-71
2024/02/07 03:09:06;;;;;;;;;;;6.20;67.00;;;;;;5096408;28;20075;-72
2024/02/07 03:11:33;;;;;;;4.68;2.28;;;6.20;66.70;;;;;;5094047;28;19920;-73
2024/02/07 03:14:04;;;;;;;4.32;2.30;;;6.30;66.60;;;;;;5094546;28;20047;-72
2024/02/07 03:16:30;;;;;;;3.75;1.38;;;6.30;66.70;;;;;;5095422;28;20059;-72
2024/02/07 03:18:59;;;;;;;1.75;1.08;;;6.30;66.80;;;;;;5094146;28;20078;-73
2024/02/07 03:21:26;;;;;;;2.38;1.17;;;6.30;66.80;;;;;;5093688;28;20063;-74
2024/02/07 03:26:39;;;;;;;5.03;1.98;;;6.40;67.00;;;;;;5094495;28;20131;-74
2024/02/07 03:29:05;;;;;;;7.53;2.65;;;6.40;67.30;;;;;;5093936;28;20064;-73
2024/02/07 03:31:36;;;;;;;;;;;6.40;67.30;;;;;;5095225;28;20393;-74
2024/02/07 03:34:02;;;;;;;4.57;1.33;;;6.30;67.60;;;;;;5093972;28;19912;-73
2024/02/07 03:36:29;;;;;;;;;;;6.30;67.40;;;;;;5093688;28;20036;-74
2024/02/07 03:38:55;;;;;;;2.15;1.20;;;6.30;67.60;;;;;;5076540;28;19916;-73
2024/02/07 03:41:21;;;;;;;;;;;6.20;67.60;;;;;;5076393;28;20090;-74
2024/02/07 03:43:47;;;;;;;2.90;1.13;;;6.20;67.80;;;;;;5094980;28;20319;-74
2024/02/07 03:46:13;;;;;;;;;;;6.20;67.40;;;;;;5093853;28;20441;-74
2024/02/07 03:48:39;;;;;;;2.25;1.75;;;6.20;67.50;;;;;;5095053;28;20068;-74
2024/02/07 03:51:05;;;;;;;5.30;2.20;;;6.10;67.90;;;;;;5092834;28;20064;-74
2024/02/07 03:53:32;;;;;;;1.02;0.80;;;6.10;67.90;;;;;;5093631;28;20032;-71
2024/02/07 03:55:58;;;;;;;2.45;1.02;;;6.10;67.60;;;;;;5093121;28;20036;-73
2024/02/07 03:58:25;;;;;;;1.33;1.13;;;6.20;67.80;;;;;;5094066;28;20058;-74
2024/02/07 04:00:51;;;;;;;3.88;1.33;;;6.20;67.90;;;;;;5092252;28;20044;-74
2024/02/07 04:03:20;;;;;;;;;;;6.30;67.70;;;;;;5093535;28;20032;-73
2024/02/07 04:05:46;;;;;;;10.60;2.75;;;6.30;67.80;;;;;;5092513;28;19916;-74
2024/02/07 04:08:13;;;;;;;;;;;6.40;67.30;;;;;;5093048;28;20599;-72
2024/02/07 04:10:42;;;;;;;2.93;2.10;;;6.40;67.20;;;;;;5091771;28;20407;-71
2024/02/07 05:15:59;;;;;;;6.22;1.45;;;6.20;67.60;;;;;;5093200;28;20137;-73
2024/02/07 05:18:25;;;;;;;4.80;2.08;;;6.20;67.80;;;;;;5091130;28;20036;-73
2024/02/07 05:20:51;;;;;;;8.43;2.92;;;6.20;68.00;;;;;;5092004;28;20488;-74
2024/02/07 05:23:19;;;;;;;3.88;2.00;;;6.20;68.10;;;;;;5091332;28;20020;-73
2024/02/07 05:25:46;;;;;;;3.55;2.10;;;6.30;67.80;;;;;;5091254;28;20125;-74
2024/02/07 05:28:12;;;;;;;0.75;0.70;;;6.30;67.60;;;;;;5091117;28;20028;-72
2024/02/07 05:30:40;;;;;;;1.08;0.90;;;6.30;67.60;;;;;;5090344;28;20047;-74
2024/02/07 05:33:07;;;;;;;1.85;1.33;;;6.30;67.40;;;;;;5092134;28;20416;-73
2024/02/07 05:35:33;;;;;;;5.30;1.75;;;6.40;66.80;;;;;;5091023;28;20055;-74
2024/02/07 05:37:59;;;;;;;2.25;1.80;;;6.40;67.70;;;;;;5092257;28;20032;-73
2024/02/07 05:40:25;;;;;;;1.92;1.35;;;6.30;67.70;;;;;;5091568;28;20086;-73
2024/02/07 05:42:51;;;;;;;3.20;1.85;;;6.30;68.00;;;;;;5091289;28;20392;-74
2024/02/07 05:45:17;;;;;;;4.10;1.85;;;6.20;68.30;;;;;;5091913;28;20047;-74
2024/02/07 05:47:43;;;;;;;3.00;1.48;;;6.20;68.50;;;;;;5090664;28;20058;-73
2024/02/07 05:50:10;;;;;;;6.50;2.55;;;6.10;68.90;;;;;;5091498;28;20046;-73
2024/02/07 05:52:54;;;;;;;3.13;2.28;;;6.10;68.50;;;;;;5091737;28;20028;-74
2024/02/07 05:55:20;;;;;;;4.13;2.42;;;6.10;68.90;;;;;;5073496;28;20043;-74
2024/02/07 05:57:49;;;;;;;1.75;1.52;;;6.10;68.60;;;;;;5091978;28;20035;-73
2024/02/07 06:00:16;;;;;;;1.92;1.05;;;6.10;68.60;;;;;;5091127;28;20047;-74
2024/02/07 06:02:43;;;;;;;2.95;1.10;;;6.20;68.50;;;;;;5090450;28;20046;-74
2024/02/07 06:05:10;;;;;;;3.15;1.10;;;6.20;68.50;;;;;;5090328;28;20075;-74
2024/02/07 06:07:36;;;;;;;21.23;1.02;;;6.10;68.60;;;;;;5091935;28;20025;-74
2024/02/07 06:10:03;;;;;;;2.63;1.30;;;6.10;68.10;;;;;;5090211;28;20043;-72
2024/02/07 06:12:31;;;;;;;;;;;6.10;68.20;;;;;;5073425;28;20047;-71
2024/02/07 06:14:58;;;;;;;3.78;1.40;;;6.10;68.70;;;;;;5073498;28;19926;-71
2024/02/07 06:17:26;;;;;;;2.08;1.20;;;6.00;68.00;;;;;;5090133;28;20070;-71
2024/02/07 06:19:52;;;;;;;5.70;1.83;;;6.10;68.80;;;;;;5090135;28;20044;-71
2024/02/07 06:22:18;;;;;;;5.38;1.48;;;6.10;69.00;;;;;;5089345;28;20655;-72
2024/02/07 06:24:44;;;;;;;2.33;1.70;;;6.20;69.00;;;;;;5090194;28;20044;-72
2024/02/07 06:27:11;;;;;;;4.20;1.52;;;6.30;68.90;;;;;;5090294;28;20040;-71
2024/02/07 06:29:37;;;;;;;1.80;0.98;;;6.30;68.60;;;;;;5090016;28;20032;-71
2024/02/07 06:32:04;;;;;;;11.65;4.13;;;6.40;68.60;;;;;;5089767;28;20043;-71
2024/02/07 06:34:31;;;;;;;4.70;2.60;;;6.40;67.90;;;;;;5089688;28;20116;-72
2024/02/07 06:36:59;;;;;;;8.10;2.22;;;6.40;68.80;;;;;;5089947;28;20381;-72
2024/02/07 06:39:25;;;;;;;7.00;4.10;;;6.50;68.70;;;;;;5089969;28;20111;-71
2024/02/07 06:41:51;;;;;;;6.28;2.75;;;6.50;68.90;;;;;;5090554;28;20040;-72
2024/02/07 06:44:17;;;;;;;5.07;2.67;;;6.50;69.10;;;;;;5073131;28;20427;-74
2024/02/07 06:46:44;;;;;;;4.53;3.22;;;6.60;69.10;;;;;;5091358;28;20393;-74
2024/02/07 06:49:10;;;;;;;3.33;2.20;;;6.60;69.00;;;;;;5090918;28;20462;-74
2024/02/07 06:51:37;;;;;;;5.30;2.65;;;6.60;68.50;;;;;;5088681;28;20043;-74
2024/02/07 06:54:03;;;;;;;8.68;3.13;;;6.60;69.20;;;;;;5091187;28;20030;-74
2024/02/07 06:56:29;;;;;;;3.58;2.75;;;6.60;69.50;;;;;;5091581;28;20436;-74
2024/02/07 06:58:55;;;;;;;4.00;2.15;;;6.70;69.80;;;;;;5089841;28;20028;-71
2024/02/07 07:01:21;;;;;;;0.65;0.60;;;6.70;69.90;;;;;;5090434;28;20046;-72
2024/02/07 07:03:51;;;;;;;3.28;1.40;;;6.80;69.50;;;;;;5072872;28;20042;-72
2024/02/07 07:06:17;;;;;;;2.17;1.08;;;6.90;69.30;;;;;;5089751;28;20044;-72
2024/02/07 07:08:44;;;;;;;2.40;1.67;;;7.00;69.20;;;;;;5089720;28;20047;-71
2024/02/07 07:11:10;;;;;;;5.35;2.38;;;7.00;69.00;;;;;;5089048;28;20044;-71
2024/02/07 07:13:36;;;;;;;2.35;1.73;;;7.10;68.60;;;;;;5072876;28;20126;-74
2024/02/07 07:16:03;;;;;;;2.88;2.05;;;7.10;69.20;;;;;;5090969;28;20049;-74
2024/02/07 07:18:29;;;;;;;;;;;7.20;68.50;;;;;;5073104;28;20135;-74
2024/02/07 07:20:55;;;;;;;3.17;2.08;;;7.30;69.30;;;;;;5072186;28;19998;-72
2024/02/07 07:23:21;;;;;;;3.33;1.95;;;7.30;68.70;;;;;;5089459;28;20028;-72
2024/02/07 07:25:48;;;;;;;4.88;2.38;;;7.40;68.50;;;;;;5090890;28;20103;-74
2024/02/07 07:28:14;;;;;;;4.90;1.58;;;7.50;68.90;;;;;;5089560;28;20093;-72
2024/02/07 07:30:40;;;;;;;2.28;1.30;;;7.50;69.50;;;;;;5089830;28;20039;-71
2024/02/07 07:33:06;;;;;;;6.10;2.55;;;7.60;69.30;;;;;;5090812;28;20094;-72
2024/02/07 07:35:32;;;;;;;0.82;0.57;;;7.70;69.20;;;;;;5089682;28;20048;-72
2024/02/07 07:38:02;;;;;;;1.67;1.00;;;7.70;69.60;;;;;;5090765;28;20031;-72
2024/02/07 07:40:29;;;;;;;7.03;3.28;;;7.70;69.50;;;;;;5072532;28;20683;-72
2024/02/07 07:42:55;;;;;;;3.28;2.15;;;7.70;69.40;;;;;;5089344;28;20028;-74
2024/02/07 07:45:21;;;;;;;5.15;3.25;;;7.90;69.10;;;;;;5090573;28;20039;-74
2024/02/07 07:47:47;;;;;;;3.08;2.05;;;8.00;68.50;;;;;;5094230;28;20036;-75
2024/02/07 07:50:13;;;;;;;2.92;2.20;;;8.20;68.00;;;;;;5093712;28;20036;-74
2024/02/07 07:52:39;;;;;;;5.68;2.13;;;8.40;67.60;;;;;;5094097;28;20059;-74
2024/02/07 07:55:05;;;;;;;4.88;2.95;;;8.60;66.90;;;;;;5092996;28;20032;-74
2024/02/07 07:57:31;;;;;;;;;;;8.80;66.30;;;;;;5093456;28;20090;-73
2024/02/07 07:59:57;;;;;;;8.60;4.47;;;9.10;66.30;;;;;;5094030;28;19920;-73
2024/02/07 08:02:23;;;;;;;2.88;2.55;;;9.10;65.80;;;;;;5092005;28;20047;-74
2024/02/07 08:04:49;;;;;;;14.23;6.32;;;9.30;65.40;;;;;;5093851;28;20028;-74
2024/02/07 08:07:15;;;;;;;11.68;5.70;;;9.40;65.50;;;;;;5092659;28;20098;-71
2024/02/07 08:09:42;;;;;;;10.38;8.68;;;9.50;65.30;;;;;;5092655;28;20028;-72
2024/02/07 08:12:08;;;;;;;12.05;9.50;;;9.60;65.20;;;;;;5091866;28;20458;-72
2024/02/07 08:14:35;;;;;;;16.55;8.85;;;9.70;64.90;;;;;;5093814;28;20032;-72
2024/02/07 08:17:01;;;;;;;23.40;12.55;;;9.80;64.40;;;;;;5075627;28;20036;-72
2024/02/07 08:19:27;;;;;;;14.15;9.40;;;10.10;64.30;;;;;;5093827;28;20035;-72
2024/02/07 08:21:53;;;;;;;15.10;8.90;;;10.20;63.80;;;;;;5091741;28;20044;-71
2024/02/07 08:24:19;;;;;;;11.77;5.80;;;10.40;63.60;;;;;;5092269;28;20126;-72
2024/02/07 08:26:45;;;;;;;9.23;4.10;;;10.50;63.20;;;;;;5093777;28;20075;-72
2024/02/07 08:29:11;;;;;;;9.02;4.80;;;10.60;62.60;;;;;;5092217;28;20032;-71
2024/02/07 08:31:39;;;;;;;3.47;2.35;;;10.70;62.50;;;;;;5074768;28;20036;-72
2024/02/07 08:34:05;;;;;;;6.40;3.47;;;10.90;62.00;;;;;;5093379;28;20036;-72
2024/02/07 08:36:31;;;;;;;4.90;2.95;;;11.00;61.70;;;;;;5093690;28;20044;-74
2024/02/07 08:38:57;;;;;;;1.75;1.38;;;11.10;61.60;;;;;;5093499;28;20036;-72
2024/02/07 08:41:23;;;;;;;2.45;1.40;;;11.10;61.70;;;;;;5091210;28;20415;-72
2024/02/07 08:43:49;;;;;;;2.75;1.63;;;11.40;61.30;;;;;;5092137;28;20067;-71
2024/02/07 08:46:15;;;;;;;0.98;0.65;;;11.60;61.10;;;;;;5074911;28;20546;-72
2024/02/07 08:48:43;;;;;;;2.30;1.40;;;11.90;60.40;;;;;;5091759;28;20028;-72
2024/02/07 08:51:10;;;;;;;2.45;1.70;;;12.30;59.70;;;;;;5092598;28;20048;-72
2024/02/07 08:53:35;;;;;;;;;;;12.20;57.90;;;;;;5093599;28;20059;-71
2024/02/07 08:56:02;;;;;;;1.08;0.73;;;12.10;59.30;;;;;;5093214;28;19920;-71
2024/02/07 08:58:28;;;;;;;0.45;0.30;;;12.10;59.20;;;;;;5091004;28;20032;-72
2024/02/07 09:00:54;;;;;;;0.82;0.68;;;12.10;59.30;;;;;;5074039;28;20489;-72
2024/02/07 09:03:20;;;;;;;;;;;12.20;58.90;;;;;;5093451;28;20028;-72
2024/02/07 09:05:46;;;;;;;1.83;1.35;;;12.20;58.80;;;;;;5091505;28;19922;-71
2024/02/07 09:08:12;;;;;;;3.47;1.15;;;12.30;58.60;;;;;;5091559;28;20024;-72
2024/02/07 09:10:38;;;;;;;1.77;1.08;;;12.40;59.30;;;;;;5073912;28;20528;-71
2024/02/07 09:13:04;;;;;;;0.55;0.30;;;12.40;58.70;;;;;;5091513;28;20035;-72
2024/02/07 09:15:30;;;;;;;4.60;1.75;;;12.50;58.80;;;;;;5091404;28;20093;-72
2024/02/07 09:17:56;;;;;;;0.20;0.20;;;12.60;58.30;;;;;;5092620;28;20415;-72
2024/02/07 09:20:22;;;;;;;0.85;0.60;;;12.70;58.40;;;;;;5091912;28;20051;-72
2024/02/07 09:22:48;;;;;;;0.75;0.65;;;12.70;57.90;;;;;;5074544;28;20039;-71
2024/02/07 09:25:14;;;;;;;4.07;0.88;;;12.80;57.60;;;;;;5091286;28;20056;-72
2024/02/07 09:27:41;;;;;;;2.00;1.60;;;12.80;57.70;;;;;;5091179;28;20434;-71
2024/02/07 09:30:10;;;;;;;0.73;0.73;;;12.90;57.60;;;;;;5091766;28;20290;-72
2024/02/07 09:32:39;;;;;;;1.75;0.77;;;13.00;56.10;;;;;;5091096;28;20107;-72
2024/02/07 09:35:06;;;;;;;1.55;0.95;;;13.10;56.10;;;;;;5091067;28;20032;-72
2024/02/07 09:37:32;;;;;;;2.10;0.50;;;13.20;55.60;;;;;;5090798;28;20419;-72
2024/02/07 09:39:58;;;;;;;1.10;1.02;;;13.40;55.30;;;;;;5090917;28;20036;-72
2024/02/07 09:42:26;;;;;;;1.40;0.60;;;13.60;55.20;;;;;;5091437;28;20396;-71
2024/02/07 09:44:54;;;;;;;0.65;0.65;;;13.80;54.20;;;;;;5090668;28;20097;-72
2024/02/07 09:47:21;;;;;;;1.02;0.50;;;14.00;53.80;;;;;;5090526;28;20045;-72
2024/02/07 09:49:48;;;;;;;1.33;0.52;;;14.10;52.60;;;;;;5090610;28;20093;-72
2024/02/07 09:52:33;;;;;;;0.68;0.32;;;14.20;52.40;;;;;;5072800;28;20036;-72
2024/02/07 09:55:04;;;;;;;0.60;0.30;;;14.30;51.50;;;;;;5073826;28;20040;-71
2024/02/07 09:57:30;;;;;;;0.95;0.85;;;14.50;50.20;;;;;;5090527;28;20032;-71
2024/02/07 09:59:57;;;;;;;1.35;0.50;;;14.70;51.60;;;;;;5090627;28;20032;-72
2024/02/07 10:02:26;;;;;;;0.70;0.28;;;14.60;50.20;;;;;;5091052;28;20080;-71
2024/02/07 10:04:55;;;;;;;0.60;0.38;;;14.50;48.90;;;;;;5073462;28;20032;-72
2024/02/07 10:07:21;;;;;;;3.53;1.30;;;14.40;50.10;;;;;;5073208;28;20538;-72
2024/02/07 10:10:08;;;;;;;1.02;0.85;;;14.40;50.60;;;;;;5072581;28;20058;-72
2024/02/07 10:12:35;;;;;;;0.38;0.30;;;14.30;48.40;;;;;;5089944;28;20435;-71
2024/02/07 10:15:02;;;;;;;1.25;0.55;;;14.30;48.40;;;;;;5090409;28;20481;-72
2024/02/07 10:17:28;;;;;;;0.60;0.55;;;14.30;48.30;;;;;;5073079;28;20067;-72
2024/02/07 10:19:54;;;;;;;0.55;0.13;;;14.30;48.30;;;;;;5090395;28;20055;-72
2024/02/07 10:22:20;;;;;;;1.75;0.82;;;14.30;47.90;;;;;;5089272;28;20129;-71
2024/02/07 10:24:47;;;;;;;1.95;0.93;;;14.30;47.40;;;;;;5091230;28;20056;-72
2024/02/07 10:27:20;;;;;;;0.40;0.40;;;14.40;47.60;;;;;;5089905;28;20032;-72
2024/02/07 10:29:47;;;;;;;0.20;0.20;;;14.30;47.00;;;;;;5089971;28;20476;-71
2024/02/07 10:32:32;;;;;;;2.53;0.47;;;14.40;46.70;;;;;;5072477;28;20127;-72
2024/02/07 10:34:58;;;;;;;1.35;0.52;;;14.50;46.40;;;;;;5091494;28;20404;-71
2024/02/07 10:37:25;;;;;;;2.75;0.43;;;14.50;46.40;;;;;;5089883;28;20489;-72
2024/02/07 10:40:20;;;;;;;1.40;0.52;;;14.70;46.80;;;;;;5089968;28;20059;-72
2024/02/07 10:43:06;;;;;;;0.22;0.22;;;14.80;46.10;;;;;;5089613;28;20036;-71
2024/02/07 10:45:32;;;;;;;0.60;0.35;;;14.80;45.50;;;;;;5091138;28;20036;-72
2024/02/07 10:47:58;;;;;;;1.25;0.60;;;14.80;46.80;;;;;;5089886;28;20051;-72
2024/02/07 10:50:24;;;;;;;;;;;14.90;46.10;;;;;;5091069;28;20156;-72
2024/02/07 10:52:50;;;;;;;0.57;0.30;;;14.90;44.60;;;;;;5089870;28;20395;-71
2024/02/07 10:55:21;;;;;;;0.98;0.57;;;14.90;44.90;;;;;;5091123;28;20384;-71
2024/02/07 10:58:09;;;;;;;1.02;0.60;;;14.90;45.80;;;;;;5090090;28;20098;-71
2024/02/07 11:00:35;;;;;;;1.15;0.73;;;15.00;45.00;;;;;;5089130;28;20043;-72
2024/02/07 11:03:02;;;;;;;0.65;0.25;;;15.10;44.90;;;;;;5089823;28;20378;-72
2024/02/07 11:05:28;;;;;;;0.32;0.32;;;15.10;45.20;;;;;;5089676;28;20100;-71
2024/02/07 11:07:54;;;;;;;0.47;0.38;;;15.20;43.90;;;;;;5089699;28;20560;-72
2024/02/07 11:10:22;;;;;;;;;;;15.30;44.30;;;;;;5089576;28;20534;-72
2024/02/07 11:12:48;;;;;;;0.25;0.22;;;16.10;43.00;;;;;;5073069;28;19916;-72
2024/02/07 11:15:14;;;;;;;1.55;0.70;;;16.30;42.10;;;;;;5089395;28;20036;-72
2024/02/07 11:17:41;;;;;;;2.42;1.23;;;16.10;40.90;;;;;;5072764;28;20035;-71
2024/02/07 11:20:09;;;;;;;1.05;0.47;;;15.70;41.90;;;;;;5089098;28;20040;-72
2024/02/07 11:22:54;;;;;;;0.98;0.82;;;15.50;42.10;;;;;;5075844;28;20032;-71
2024/02/07 11:25:22;;;;;;;0.90;0.55;;;15.40;42.80;;;;;;5076251;28;20063;-71
2024/02/07 11:27:51;;;;;;;0.90;0.70;;;15.40;42.40;;;;;;5093574;28;20020;-71
2024/02/07 11:30:18;;;;;;;1.95;0.70;;;15.60;42.20;;;;;;5092682;28;20047;-72
2024/02/07 11:32:51;;;;;;;0.85;0.77;;;15.90;41.30;;;;;;5093255;28;20029;-72
2024/02/07 11:35:22;;;;;;;0.28;0.25;;;15.80;40.90;;;;;;5093445;28;20039;-72
2024/02/07 11:37:49;;;;;;;0.32;0.32;;;15.60;41.40;;;;;;5094828;28;20028;-71
2024/02/07 11:40:17;;;;;;;0.77;0.38;;;15.50;41.20;;;;;;5092546;28;20032;-72
2024/02/07 11:42:44;;;;;;;0.93;0.60;;;15.50;42.40;;;;;;5076065;28;20120;-71
2024/02/07 11:45:28;;;;;;;;;;;15.60;41.00;;;;;;5093554;28;20118;-72
2024/02/07 11:47:54;;;;;;;0.52;0.30;;;15.50;42.00;;;;;;5092958;28;19915;-72
2024/02/07 11:50:21;;;;;;;1.17;0.75;;;15.50;41.30;;;;;;5093691;28;20090;-72
2024/02/07 11:52:47;;;;;;;0.35;0.30;;;15.50;40.00;;;;;;5094122;28;20035;-72
2024/02/07 11:55:17;;;;;;;;;;;15.50;40.60;;;;;;5094744;28;20071;-72
2024/02/07 11:58:04;;;;;;;1.95;0.60;;;15.50;39.70;;;;;;5076328;28;19912;-72
2024/02/07 12:00:30;;;;;;;1.10;0.75;;;15.40;40.20;;;;;;5075466;28;20113;-71
2024/02/07 12:02:59;;;;;;;0.20;0.20;;;15.40;39.70;;;;;;5094173;28;20025;-71
2024/02/07 12:05:25;;;;;;;0.25;0.17;;;15.30;39.80;;;;;;5092553;28;20400;-71
2024/02/07 12:07:54;;;;;;;;;;;15.40;39.80;;;;;;5093319;28;20024;-72
2024/02/07 12:10:21;;;;;;;0.50;0.30;;;15.50;38.50;;;;;;5092031;28;19955;-72
2024/02/07 12:12:54;;;;;;;0.38;0.30;;;15.70;38.60;;;;;;5092469;28;20024;-72
2024/02/07 12:15:22;;;;;;;0.30;0.20;;;15.70;39.30;;;;;;5092563;28;20040;-71
2024/02/07 12:17:48;;;;;;;1.27;0.75;;;15.50;39.00;;;;;;5092386;28;20032;-72
2024/02/07 12:20:15;;;;;;;1.75;0.63;;;15.30;39.30;;;;;;5091627;28;20071;-71
2024/02/07 12:22:41;;;;;;;0.82;0.63;;;15.20;40.00;;;;;;5093704;28;20032;-72
2024/02/07 12:25:14;;;;;;;1.00;0.60;;;15.10;39.40;;;;;;5092172;28;20052;-72
2024/02/07 12:27:41;;;;;;;0.70;0.63;;;15.10;39.90;;;;;;5075376;28;20042;-72
2024/02/07 12:30:08;;;;;;;0.68;0.52;;;15.00;39.70;;;;;;5092788;28;20032;-71
2024/02/07 12:32:34;;;;;;;2.10;0.50;;;15.00;39.00;;;;;;5091013;28;20093;-72
2024/02/07 12:35:00;;;;;;;0.20;0.17;;;15.00;39.70;;;;;;5075662;28;20110;-71
2024/02/07 12:37:26;;;;;;;0.95;0.63;;;15.00;40.40;;;;;;5093296;28;20032;-71
2024/02/07 12:39:52;;;;;;;1.75;1.10;;;15.00;41.10;;;;;;5092143;28;20048;-71
2024/02/07 12:42:37;;;;;;;0.30;0.30;;;15.00;40.00;;;;;;5092543;28;20043;-72
2024/02/07 12:45:03;;;;;;;0.95;0.20;;;15.20;40.60;;;;;;5093233;28;20036;-72
2024/02/07 12:47:29;;;;;;;0.57;0.43;;;15.20;38.70;;;;;;5091793;28;20776;-72
2024/02/07 12:49:56;;;;;;;0.57;0.35;;;15.30;39.00;;;;;;5093179;28;20473;-71
2024/02/07 12:52:22;;;;;;;0.25;0.25;;;15.30;39.40;;;;;;5091051;28;20078;-71
2024/02/07 12:54:48;;;;;;;0.50;0.40;;;15.30;40.20;;;;;;5091781;28;20047;-72
2024/02/07 12:57:33;;;;;;;0.32;0.20;;;15.10;39.10;;;;;;5091647;28;20032;-72
2024/02/07 13:00:10;;;;;;;0.15;0.15;;;15.10;39.20;;;;;;5091619;28;20125;-72
2024/02/07 13:02:44;;;;;;;0.30;0.20;;;15.10;39.50;;;;;;5091330;28;20043;-71
2024/02/07 13:05:10;;;;;;;0.20;0.20;;;15.00;40.30;;;;;;5074538;28;20036;-72
2024/02/07 13:07:36;;;;;;;1.88;0.82;;;15.00;39.90;;;;;;5091508;28;20093;-72
2024/02/07 13:10:03;;;;;;;0.17;0.17;;;14.90;41.20;;;;;;5091564;28;20044;-71
2024/02/07 13:12:29;;;;;;;1.63;0.88;;;14.90;40.10;;;;;;5092175;28;20039;-71
2024/02/07 13:14:55;;;;;;;0.13;0.13;;;14.80;40.70;;;;;;5092829;28;20040;-72
2024/02/07 13:17:21;;;;;;;0.30;0.20;;;14.80;40.50;;;;;;5091061;28;20028;-72
2024/02/07 13:19:47;;;;;;;0.82;0.43;;;14.80;41.80;;;;;;5091268;28;20052;-73
2024/02/07 13:22:13;;;;;;;1.60;0.70;;;14.80;41.70;;;;;;5090905;28;20039;-72
2024/02/07 13:24:40;;;;;;;2.75;0.82;;;14.70;42.10;;;;;;5091248;28;20474;-72
2024/02/07 13:27:06;;;;;;;0.43;0.30;;;14.70;42.30;;;;;;5091031;28;20451;-73
2024/02/07 13:29:33;;;;;;;0.70;0.63;;;14.70;41.90;;;;;;5091470;28;20442;-73
2024/02/07 13:31:59;;;;;;;0.68;0.55;;;14.70;41.70;;;;;;5090424;28;20119;-72
2024/02/07 13:34:26;;;;;;;1.42;0.65;;;14.80;42.80;;;;;;5091094;28;20036;-72
2024/02/07 13:36:52;;;;;;;0.60;0.43;;;14.80;43.00;;;;;;5091004;28;20411;-72
2024/02/07 13:39:18;;;;;;;0.10;0.10;;;14.80;42.40;;;;;;5090858;28;20435;-71
2024/02/07 13:41:44;;;;;;;0.45;0.22;;;14.80;41.80;;;;;;5090380;28;20040;-72
2024/02/07 13:44:12;;;;;;;0.30;0.30;;;14.90;42.00;;;;;;5073658;28;20512;-72
2024/02/07 13:46:38;;;;;;;1.55;1.17;;;14.80;42.00;;;;;;5090737;28;20135;-72
2024/02/07 13:49:08;;;;;;;;;;;14.80;41.30;;;;;;5091060;28;20386;-72
2024/02/07 13:51:34;;;;;;;0.43;0.38;;;14.70;42.30;;;;;;5073561;28;19924;-72
2024/02/07 13:54:00;;;;;;;;;;;14.60;42.80;;;;;;5091302;28;20293;-72
2024/02/07 13:56:26;;;;;;;0.82;0.25;;;14.60;42.70;;;;;;5092208;28;19916;-72
2024/02/07 13:58:52;;;;;;;6.43;2.92;;;14.50;43.40;;;;;;5091959;28;20054;-72
2024/02/07 14:01:18;;;;;;;1.27;0.47;;;14.50;43.30;;;;;;5091474;28;20036;-72
2024/02/07 14:03:44;;;;;;;2.15;1.35;;;14.40;43.70;;;;;;5091797;28;20035;-72
2024/02/07 14:06:11;;;;;;;2.00;0.52;;;14.30;43.10;;;;;;5090471;28;20032;-72